»·PEaware :: NKS250 KATL-KBWI

NKS250 :: KATL-KBWI

FLIGHT INFORMATION

Flight Status: Arrived
Operator:
Spirit Airlines
More flights by this operator :: More flights under this callsign
Pilot: Andrew J. (13363)
Aircraft: AIRBUS A319
(A319)
More flights by this aircraft type
Origin: KATL Hartsfield-Jackson Atlanta
United States
Destination: KBWI Baltimore-Washington Intl
United States
More flights between these airports :: More routes between these airports
Route: GAIRY2 IRQ CAE J4 FLO J207 RDU THHMP RAVNN6
File this flight plan on PilotEdge
Remarks:
Altitude:
(Current/Filed)
35,000ft
Speed:
(Current/Filed)
450kts
Departed: 08-Oct-19 03:02 PM
Arrived: 08-Oct-19 04:37 PM
Distance/Time
Traveled:
501nm/1:34
Distance/Time
To Go:
Arrived

Flight Plot

Page will automatically refresh every two minutes.

Flight plan parsing failed; only flown route is shown


Map Options




Map Legend


Flown Route
Filed Route
Departure Airport
Arrival Airport
Navaid (VOR, NDB)
Fix

Horizontal Profiles

Position Reports

Time Latitude Longitude Heading Altitude Ground
Speed
08-Oct-19 14:50 33.638772 -84.430659 359 1033ft 0kts
08-Oct-19 14:50 33.638773 -84.430659 359 1033ft 0kts
08-Oct-19 14:51 33.638773 -84.430659 359 1033ft 0kts
08-Oct-19 14:53 33.638773 -84.430659 359 1033ft 0kts
08-Oct-19 14:53 33.638972 -84.430703 299 1033ft 4kts
08-Oct-19 14:54 33.635812 -84.430427 103 1033ft 14kts
08-Oct-19 14:55 33.635796 -84.424568 91 1033ft 20kts
08-Oct-19 14:56 33.635793 -84.417350 91 1033ft 22kts
08-Oct-19 14:57 33.635808 -84.409540 89 1033ft 23kts
08-Oct-19 14:58 33.635497 -84.407410 174 1033ft 5kts
08-Oct-19 14:59 33.635424 -84.407408 178 1033ft 0kts
08-Oct-19 15:00 33.634709 -84.408212 270 1033ft 10kts
08-Oct-19 15:01 33.634675 -84.448931 271 1790ft 178kts
08-Oct-19 15:02 33.618523 -84.510608 246 3802ft 233kts
08-Oct-19 15:03 33.578333 -84.582174 201 6378ft 285kts
08-Oct-19 15:04 33.498961 -84.584397 170 9817ft 290kts
08-Oct-19 15:05 33.455717 -84.503266 89 11344ft 360kts
08-Oct-19 15:06 33.456077 -84.369623 90 12793ft 422kts
08-Oct-19 15:07 33.464663 -84.224739 84 15314ft 442kts
08-Oct-19 15:08 33.476575 -84.074557 84 17572ft 458kts
08-Oct-19 15:09 33.488593 -83.919549 85 19530ft 473kts
08-Oct-19 15:10 33.500806 -83.759839 85 21247ft 488kts
08-Oct-19 15:11 33.514564 -83.595854 81 22779ft 502kts
08-Oct-19 15:12 33.538781 -83.428637 80 24146ft 514kts
08-Oct-19 15:13 33.562947 -83.254674 81 25781ft 516kts
08-Oct-19 15:14 33.586136 -83.083973 82 27317ft 517kts
08-Oct-19 15:15 33.609171 -82.912785 82 28727ft 517kts
08-Oct-19 15:16 33.631874 -82.742322 83 30011ft 516kts
08-Oct-19 15:17 33.654264 -82.572268 83 31139ft 517kts
08-Oct-19 15:18 33.676454 -82.402027 83 32132ft 518kts
08-Oct-19 15:19 33.698521 -82.231010 84 32984ft 518kts
08-Oct-19 15:20 33.721306 -82.059793 83 33717ft 520kts
08-Oct-19 15:21 33.745109 -81.888732 83 34398ft 521kts
08-Oct-19 15:22 33.768602 -81.717251 83 35077ft 519kts
08-Oct-19 15:23 33.791844 -81.545756 83 35110ft 520kts
08-Oct-19 15:24 33.814972 -81.373376 83 35110ft 520kts
08-Oct-19 15:25 33.837721 -81.202189 84 35091ft 521kts
08-Oct-19 15:26 33.863797 -81.030857 77 35087ft 524kts
08-Oct-19 15:27 33.909038 -80.863820 73 35086ft 526kts
08-Oct-19 15:28 33.955044 -80.696206 73 35086ft 527kts
08-Oct-19 15:29 34.000588 -80.528497 73 35086ft 528kts
08-Oct-19 15:30 34.046056 -80.360054 74 35104ft 528kts
08-Oct-19 15:31 34.091249 -80.191290 74 35110ft 529kts
08-Oct-19 15:32 34.136771 -80.022181 74 35093ft 530kts
08-Oct-19 15:33 34.181688 -79.852933 74 35087ft 530kts
08-Oct-19 15:34 34.239279 -79.689575 51 35092ft 533kts
08-Oct-19 15:35 34.357534 -79.589703 16 35109ft 518kts
08-Oct-19 15:36 34.490267 -79.522585 17 35111ft 519kts
08-Oct-19 15:37 34.623027 -79.453017 17 35111ft 520kts
08-Oct-19 15:38 34.755808 -79.382973 17 35111ft 520kts
08-Oct-19 15:39 34.887620 -79.312929 18 35109ft 521kts
08-Oct-19 15:40 35.020723 -79.241956 18 35111ft 521kts
08-Oct-19 15:41 35.153850 -79.171108 18 35127ft 521kts
08-Oct-19 15:42 35.286448 -79.100346 18 35138ft 521kts
08-Oct-19 15:43 35.418844 -79.029266 18 35139ft 521kts
08-Oct-19 15:44 35.551741 -78.957699 18 35139ft 521kts
08-Oct-19 15:45 35.684074 -78.886052 18 35149ft 521kts
08-Oct-19 15:46 35.816152 -78.814381 18 35162ft 520kts
08-Oct-19 15:47 35.941333 -78.724014 32 35166ft 527kts
08-Oct-19 15:48 36.059481 -78.618399 32 35165ft 527kts
08-Oct-19 15:49 36.137044 -78.549566 32 35160ft 526kts
08-Oct-19 15:50 36.289988 -78.413757 32 35165ft 526kts
08-Oct-19 15:51 36.406481 -78.309408 33 35163ft 526kts
08-Oct-19 15:52 36.524710 -78.202883 33 35204ft 525kts
08-Oct-19 15:53 36.642644 -78.096602 33 35218ft 524kts
08-Oct-19 15:54 36.760929 -77.989603 33 35220ft 524kts
08-Oct-19 15:55 36.878388 -77.882934 33 35202ft 523kts
08-Oct-19 15:56 36.995868 -77.775834 33 35149ft 524kts
08-Oct-19 15:57 37.109154 -77.672174 33 34204ft 523kts
08-Oct-19 15:58 37.230625 -77.561025 34 31317ft 530kts
08-Oct-19 15:59 37.349455 -77.451388 34 27776ft 527kts
08-Oct-19 16:00 37.458971 -77.349898 34 26879ft 471kts
08-Oct-19 16:01 37.575119 -77.298347 5 25176ft 426kts
08-Oct-19 16:02 37.682578 -77.273610 6 23607ft 389kts
08-Oct-19 16:03 37.783089 -77.248160 7 23176ft 359kts
08-Oct-19 16:04 37.881121 -77.222751 7 23200ft 359kts
08-Oct-19 16:05 37.979038 -77.197299 7 22447ft 360kts
08-Oct-19 16:06 38.075859 -77.172052 8 20984ft 350kts
08-Oct-19 16:07 38.162297 -77.149509 9 19257ft 353kts
08-Oct-19 16:08 38.257255 -77.124609 9 17983ft 334kts
08-Oct-19 16:09 38.352991 -77.098362 16 15439ft 356kts
08-Oct-19 16:10 38.436266 -77.033712 34 13888ft 344kts
08-Oct-19 16:11 38.513671 -76.964643 35 12342ft 334kts
08-Oct-19 16:12 38.583941 -76.891744 43 11112ft 321kts
08-Oct-19 16:13 38.647872 -76.815025 43 10000ft 289kts
08-Oct-19 16:14 38.704676 -76.743927 52 8429ft 303kts
08-Oct-19 16:15 38.743922 -76.657799 60 7798ft 269kts
08-Oct-19 16:16 38.779692 -76.575480 60 6602ft 263kts
08-Oct-19 16:17 38.829332 -76.515907 4 5356ft 262kts
08-Oct-19 16:18 38.901715 -76.511510 3 4212ft 259kts
08-Oct-19 16:19 38.970079 -76.514434 358 3099ft 222kts
08-Oct-19 16:20 39.022672 -76.537177 338 2397ft 177kts
08-Oct-19 16:21 39.065153 -76.570670 326 2387ft 179kts
08-Oct-19 16:22 39.103683 -76.606281 326 1573ft 147kts
08-Oct-19 16:23 39.135374 -76.635557 325 863ft 139kts
08-Oct-19 16:24 39.166490 -76.664417 324 162ft 141kts
08-Oct-19 16:25 39.201235 -76.696313 321 2887ft 153kts
08-Oct-19 16:26 39.200257 -76.762422 240 3997ft 241kts
08-Oct-19 16:27 39.149390 -76.813855 186 3091ft 241kts
08-Oct-19 16:28 39.094159 -76.772715 138 2987ft 236kts
08-Oct-19 16:29 39.043116 -76.719637 138 2985ft 236kts
08-Oct-19 16:30 38.996850 -76.666723 106 2957ft 209kts
08-Oct-19 16:31 39.020062 -76.606591 47 2936ft 179kts
08-Oct-19 16:32 39.064548 -76.589996 8 2388ft 166kts
08-Oct-19 16:33 39.106048 -76.608517 326 1638ft 155kts
08-Oct-19 16:34 39.138337 -76.638340 326 788ft 138kts
08-Oct-19 16:35 39.169130 -76.666934 324 143ft 126kts
08-Oct-19 16:36 39.177402 -76.672865 143 141ft 15kts
08-Oct-19 16:37 39.174677 -76.669139 97 147ft 12kts
08-Oct-19 16:38 39.174830 -76.664681 32 146ft 13kts
08-Oct-19 16:40 39.177836 -76.663178 5 146ft 9kts
08-Oct-19 16:41 39.178887 -76.663952 290 148ft 0kts
08-Oct-19 16:42 39.178887 -76.663952 290 148ft 0kts

Navigation Log

Ident Type
Flight plan parsing failed, navigation log unavailable